Snake River Valley :: PerryB2

liberation: 2021-10-10  09:00     latitude: 41.485500     longitude: -112.055862 43 birds
# LOFT PRING MILES ARRIVAL SPEED ToWin
1 M&T Wall AU21-SRV-0009 148.652 2021-10-10 11:49:53.086 1540.030 00:00:00
2 M&T Wall AU21-SRV-0378 148.652 2021-10-10 11:49:54.028 1539.887 00:00:01
3 M&T Wall AU21-SRV-0028 148.652 2021-10-10 11:49:54.880 1539.759 00:00:02
4 M&T Wall AU21-SRV-0018 148.652 2021-10-10 11:49:55.287 1539.697 00:00:02
5 M&T Wall AU21-SRV-0029 148.652 2021-10-10 11:49:56.472 1539.518 00:00:03
6 M&T Wall AU21-SRV-0010 148.652 2021-10-10 11:49:56.960 1539.445 00:00:04
7 M&T Wall AU21-SRV-0031 148.652 2021-10-10 11:49:57.790 1539.319 00:00:05
8 M&T Wall AU21-SRV-0008 148.652 2021-10-10 11:53:37.809 1506.810 00:03:45
9 Acorn Loft AU21-ARPU-1719 137.391 2021-10-10 11:41:13.900 1499.756 00:04:13
10 Acorn Loft AU21-ARPU-1726 137.391 2021-10-10 11:46:50.587 1449.315 00:09:50
11 Acorn Loft AU21-ARPU-1720 137.391 2021-10-10 11:50:05.084 1421.692 00:13:04
12 Acorn Loft AU21-ARPU-1718 137.391 2021-10-10 11:50:54.231 1414.878 00:13:53
13 Acorn Loft AU21-ARPU-1728 137.391 2021-10-10 11:51:00.837 1413.968 00:14:00
14 Acorn Loft AU21-ARPU-1733 137.391 2021-10-10 11:51:12.768 1412.325 00:14:12
15 Acorn Loft AU21-ARPU-1727 137.391 2021-10-10 11:51:18.334 1411.561 00:14:17
16 M&T Wall AU21-SRV-0368 148.652 2021-10-10 12:10:24.868 1373.990 00:20:32
17 Acorn Loft AU21-ARPU-1712 137.391 2021-10-10 12:04:06.127 1313.446 00:27:05
18 Acorn Loft AU21-ARPU-1716 137.391 2021-10-10 12:04:11.928 1312.757 00:27:11
19 M&T Wall AU21-SRV-0383 148.652 2021-10-10 12:25:41.171 1271.975 00:35:48
20 M&T Wall AU21-SRV-0369 148.652 2021-10-10 12:30:11.074 1244.752 00:40:18
21 M&T Wall AU21-SRV-0001 148.652 2021-10-10 12:44:56.273 1163.110 00:55:03
22 M&T Wall AU21-SRV-0361 148.652 2021-10-10 12:58:51.607 1095.317 01:08:59
23 M&T Wall AU21-SRV-0036 148.652 2021-10-10 12:58:54.247 1095.115 01:09:01
24 M&T Wall AU21-SRV-0373 148.652 2021-10-10 12:58:58.432 1094.796 01:09:05
25 M&T Wall AU21-SRV-0017 148.652 2021-10-10 12:58:59.413 1094.721 01:09:06
26 Acorn Loft AU21-ARPU-1740 137.391 2021-10-10 12:46:10.153 1069.147 01:09:09
27 Acorn Loft AU21-ARPU-1710 137.391 2021-10-10 12:46:12.234 1068.983 01:09:11
28 Acorn Loft AU21-ARPU-1711 137.391 2021-10-10 13:14:12.649 951.211 01:37:12
29 Acorn Loft AU21-ARPU-1736 137.391 2021-10-10 16:28:57.460 538.599 04:51:57
AU21-SRV-0201 0 0000-00-00 00:00:00.000 0.000 00:00:00
AU21-SRV-0205 0 0000-00-00 00:00:00.000 0.000 00:00:00
AU21-SRV-0208 0 0000-00-00 00:00:00.000 0.000 00:00:00
AU21-SRV-0209 0 0000-00-00 00:00:00.000 0.000 00:00:00
AU21-SRV-0210 0 0000-00-00 00:00:00.000 0.000 00:00:00
AU21-SRV-0213 0 0000-00-00 00:00:00.000 0.000 00:00:00
AU21-SRV-0216 0 0000-00-00 00:00:00.000 0.000 00:00:00
AU21-SRV-0225 0 0000-00-00 00:00:00.000 0.000 00:00:00
AU21-SRV-0240 0 0000-00-00 00:00:00.000 0.000 00:00:00
AU21-SRV-0242 0 0000-00-00 00:00:00.000 0.000 00:00:00
AU21-SRV-0245 0 0000-00-00 00:00:00.000 0.000 00:00:00
AU21-SRV-0246 0 0000-00-00 00:00:00.000 0.000 00:00:00
AU21-SRV-0247 0 0000-00-00 00:00:00.000 0.000 00:00:00
M&T Wall AU21-SRV-0375 0 0000-00-00 00:00:00.000 0.000 00:00:00